sensor_id;sensor_type;location;lat;lon;timestamp;temperature;humidity
59162;DHT22;44942;48.936;8.260;2023-07-24T00:04:10;26.10;52.10
59162;DHT22;44942;48.936;8.260;2023-07-24T00:09:11;26.00;52.10
59162;DHT22;44942;48.936;8.260;2023-07-24T00:14:11;26.00;52.30
59162;DHT22;44942;48.936;8.260;2023-07-24T00:19:12;26.00;52.40
59162;DHT22;44942;48.936;8.260;2023-07-24T00:24:12;26.00;52.60
59162;DHT22;44942;48.936;8.260;2023-07-24T00:29:12;26.00;52.70
59162;DHT22;44942;48.936;8.260;2023-07-24T00:34:13;26.00;52.70
59162;DHT22;44942;48.936;8.260;2023-07-24T00:39:14;26.00;52.80
59162;DHT22;44942;48.936;8.260;2023-07-24T00:44:14;25.90;52.80
59162;DHT22;44942;48.936;8.260;2023-07-24T00:49:15;25.90;52.80
59162;DHT22;44942;48.936;8.260;2023-07-24T00:54:16;25.90;52.90
59162;DHT22;44942;48.936;8.260;2023-07-24T00:59:17;25.90;53.00
59162;DHT22;44942;48.936;8.260;2023-07-24T01:04:17;25.80;53.00
59162;DHT22;44942;48.936;8.260;2023-07-24T01:09:18;25.80;53.00
59162;DHT22;44942;48.936;8.260;2023-07-24T01:14:20;25.80;53.00
59162;DHT22;44942;48.936;8.260;2023-07-24T01:29:41;25.70;53.20
59162;DHT22;44942;48.936;8.260;2023-07-24T01:34:41;25.70;53.20
59162;DHT22;44942;48.936;8.260;2023-07-24T01:39:42;25.70;53.20
59162;DHT22;44942;48.936;8.260;2023-07-24T01:44:43;25.70;53.20
59162;DHT22;44942;48.936;8.260;2023-07-24T01:49:44;25.60;53.20
59162;DHT22;44942;48.936;8.260;2023-07-24T01:54:44;25.60;54.10
59162;DHT22;44942;48.936;8.260;2023-07-24T01:59:45;25.60;53.40
59162;DHT22;44942;48.936;8.260;2023-07-24T02:04:46;25.60;53.50
59162;DHT22;44942;48.936;8.260;2023-07-24T02:09:46;25.60;53.60
59162;DHT22;44942;48.936;8.260;2023-07-24T02:14:46;25.50;53.60
59162;DHT22;44942;48.936;8.260;2023-07-24T02:19:50;25.50;53.70
59162;DHT22;44942;48.936;8.260;2023-07-24T02:24:50;25.50;53.70
59162;DHT22;44942;48.936;8.260;2023-07-24T02:29:51;25.50;53.70
59162;DHT22;44942;48.936;8.260;2023-07-24T02:34:51;25.50;53.80
59162;DHT22;44942;48.936;8.260;2023-07-24T02:39:52;25.50;53.90
59162;DHT22;44942;48.936;8.260;2023-07-24T02:44:53;25.40;53.90
59162;DHT22;44942;48.936;8.260;2023-07-24T02:49:54;25.50;54.10
59162;DHT22;44942;48.936;8.260;2023-07-24T02:54:54;25.50;54.10
59162;DHT22;44942;48.936;8.260;2023-07-24T02:59:55;25.40;54.20
59162;DHT22;44942;48.936;8.260;2023-07-24T03:04:55;25.40;54.20
59162;DHT22;44942;48.936;8.260;2023-07-24T03:09:56;25.40;54.40
59162;DHT22;44942;48.936;8.260;2023-07-24T03:14:56;25.40;54.40
59162;DHT22;44942;48.936;8.260;2023-07-24T03:19:57;25.30;54.50
59162;DHT22;44942;48.936;8.260;2023-07-24T03:24:57;25.40;54.50
59162;DHT22;44942;48.936;8.260;2023-07-24T03:29:57;25.30;54.60
59162;DHT22;44942;48.936;8.260;2023-07-24T03:34:58;25.30;54.70
59162;DHT22;44942;48.936;8.260;2023-07-24T03:39:58;25.30;54.60
59162;DHT22;44942;48.936;8.260;2023-07-24T03:44:59;25.30;54.70
59162;DHT22;44942;48.936;8.260;2023-07-24T03:49:59;25.30;54.70
59162;DHT22;44942;48.936;8.260;2023-07-24T03:55:00;25.30;54.80
59162;DHT22;44942;48.936;8.260;2023-07-24T04:00:01;25.30;54.80
59162;DHT22;44942;48.936;8.260;2023-07-24T04:05:01;25.30;54.90
59162;DHT22;44942;48.936;8.260;2023-07-24T04:10:03;25.30;55.00
59162;DHT22;44942;48.936;8.260;2023-07-24T04:15:03;25.30;55.10
59162;DHT22;44942;48.936;8.260;2023-07-24T04:20:04;25.30;55.20
59162;DHT22;44942;48.936;8.260;2023-07-24T04:25:05;25.30;55.40
59162;DHT22;44942;48.936;8.260;2023-07-24T04:30:06;25.30;55.40
59162;DHT22;44942;48.936;8.260;2023-07-24T04:35:07;25.30;55.50
59162;DHT22;44942;48.936;8.260;2023-07-24T04:40:07;25.30;55.60
59162;DHT22;44942;48.936;8.260;2023-07-24T04:45:08;25.30;55.60
59162;DHT22;44942;48.936;8.260;2023-07-24T04:50:09;25.30;55.60
59162;DHT22;44942;48.936;8.260;2023-07-24T04:55:09;25.30;55.60
59162;DHT22;44942;48.936;8.260;2023-07-24T05:00:10;25.30;55.70
59162;DHT22;44942;48.936;8.260;2023-07-24T05:05:10;25.30;55.70
59162;DHT22;44942;48.936;8.260;2023-07-24T05:10:11;25.30;55.60
59162;DHT22;44942;48.936;8.260;2023-07-24T05:15:13;25.30;55.50
59162;DHT22;44942;48.936;8.260;2023-07-24T05:20:17;25.30;55.40
59162;DHT22;44942;48.936;8.260;2023-07-24T05:25:17;25.30;55.50
59162;DHT22;44942;48.936;8.260;2023-07-24T05:30:18;25.30;55.40
59162;DHT22;44942;48.936;8.260;2023-07-24T05:35:18;25.30;55.40
59162;DHT22;44942;48.936;8.260;2023-07-24T05:40:19;25.30;55.50
59162;DHT22;44942;48.936;8.260;2023-07-24T05:45:19;25.30;55.40
59162;DHT22;44942;48.936;8.260;2023-07-24T05:50:19;25.30;55.50
59162;DHT22;44942;48.936;8.260;2023-07-24T05:55:20;25.30;55.60
59162;DHT22;44942;48.936;8.260;2023-07-24T06:00:21;25.30;55.60
59162;DHT22;44942;48.936;8.260;2023-07-24T06:05:21;25.30;55.60
59162;DHT22;44942;48.936;8.260;2023-07-24T06:10:22;25.30;55.70
59162;DHT22;44942;48.936;8.260;2023-07-24T06:15:22;25.30;55.80
59162;DHT22;44942;48.936;8.260;2023-07-24T06:20:23;25.30;55.80
59162;DHT22;44942;48.936;8.260;2023-07-24T06:25:23;25.30;55.90
59162;DHT22;44942;48.936;8.260;2023-07-24T06:30:24;25.30;55.90
59162;DHT22;44942;48.936;8.260;2023-07-24T06:35:24;25.30;55.80
59162;DHT22;44942;48.936;8.260;2023-07-24T06:40:25;25.30;55.80
59162;DHT22;44942;48.936;8.260;2023-07-24T06:45:25;25.30;55.80
59162;DHT22;44942;48.936;8.260;2023-07-24T06:50:26;25.30;55.80
59162;DHT22;44942;48.936;8.260;2023-07-24T06:55:26;25.30;55.80
59162;DHT22;44942;48.936;8.260;2023-07-24T07:00:27;25.40;55.80
59162;DHT22;44942;48.936;8.260;2023-07-24T07:05:27;25.40;55.80
59162;DHT22;44942;48.936;8.260;2023-07-24T07:10:28;25.40;55.70
59162;DHT22;44942;48.936;8.260;2023-07-24T07:15:28;25.30;55.90
59162;DHT22;44942;48.936;8.260;2023-07-24T07:20:29;25.30;56.10
59162;DHT22;44942;48.936;8.260;2023-07-24T07:25:29;25.30;56.60
59162;DHT22;44942;48.936;8.260;2023-07-24T07:30:29;25.30;56.40
59162;DHT22;44942;48.936;8.260;2023-07-24T07:35:30;25.30;56.50
59162;DHT22;44942;48.936;8.260;2023-07-24T07:40:31;25.40;56.60
59162;DHT22;44942;48.936;8.260;2023-07-24T07:45:31;25.30;56.60
59162;DHT22;44942;48.936;8.260;2023-07-24T07:50:32;25.30;56.70
59162;DHT22;44942;48.936;8.260;2023-07-24T07:55:32;25.30;56.80
59162;DHT22;44942;48.936;8.260;2023-07-24T08:00:33;25.30;56.90
59162;DHT22;44942;48.936;8.260;2023-07-24T08:05:34;25.30;57.00
59162;DHT22;44942;48.936;8.260;2023-07-24T08:10:37;25.40;57.00
59162;DHT22;44942;48.936;8.260;2023-07-24T08:15:37;25.40;56.80
59162;DHT22;44942;48.936;8.260;2023-07-24T08:20:38;25.50;56.60
59162;DHT22;44942;48.936;8.260;2023-07-24T08:25:40;25.50;56.50
59162;DHT22;44942;48.936;8.260;2023-07-24T08:30:40;25.60;56.30
59162;DHT22;44942;48.936;8.260;2023-07-24T08:35:41;25.60;56.10
59162;DHT22;44942;48.936;8.260;2023-07-24T08:40:41;25.60;56.00
59162;DHT22;44942;48.936;8.260;2023-07-24T08:45:42;25.70;55.90
59162;DHT22;44942;48.936;8.260;2023-07-24T08:50:42;25.70;55.70
59162;DHT22;44942;48.936;8.260;2023-07-24T08:55:43;25.80;55.70
59162;DHT22;44942;48.936;8.260;2023-07-24T09:00:44;25.80;55.70
59162;DHT22;44942;48.936;8.260;2023-07-24T09:05:45;25.80;55.60
59162;DHT22;44942;48.936;8.260;2023-07-24T09:10:46;25.90;55.60
59162;DHT22;44942;48.936;8.260;2023-07-24T09:15:50;25.90;55.60
59162;DHT22;44942;48.936;8.260;2023-07-24T09:20:50;25.90;55.40
59162;DHT22;44942;48.936;8.260;2023-07-24T09:25:51;25.90;55.40
59162;DHT22;44942;48.936;8.260;2023-07-24T09:30:55;25.90;55.30
59162;DHT22;44942;48.936;8.260;2023-07-24T09:36:00;26.00;55.40
59162;DHT22;44942;48.936;8.260;2023-07-24T09:41:01;26.00;55.30
59162;DHT22;44942;48.936;8.260;2023-07-24T09:46:04;26.00;55.20
59162;DHT22;44942;48.936;8.260;2023-07-24T09:51:05;26.00;55.20
59162;DHT22;44942;48.936;8.260;2023-07-24T09:56:06;26.00;55.40
59162;DHT22;44942;48.936;8.260;2023-07-24T10:01:07;26.00;55.60
59162;DHT22;44942;48.936;8.260;2023-07-24T10:06:08;26.00;55.90
59162;DHT22;44942;48.936;8.260;2023-07-24T10:11:11;26.00;57.10
59162;DHT22;44942;48.936;8.260;2023-07-24T10:16:12;26.00;56.70
59162;DHT22;44942;48.936;8.260;2023-07-24T10:21:12;26.00;57.00
59162;DHT22;44942;48.936;8.260;2023-07-24T10:26:13;25.90;57.20
59162;DHT22;44942;48.936;8.260;2023-07-24T10:31:23;25.90;57.40
59162;DHT22;44942;48.936;8.260;2023-07-24T10:36:24;25.90;57.50
59162;DHT22;44942;48.936;8.260;2023-07-24T10:41:34;25.90;57.70
59162;DHT22;44942;48.936;8.260;2023-07-24T10:46:41;25.90;57.80
59162;DHT22;44942;48.936;8.260;2023-07-24T10:51:42;25.80;57.80
59162;DHT22;44942;48.936;8.260;2023-07-24T10:56:42;25.80;57.80
59162;DHT22;44942;48.936;8.260;2023-07-24T11:01:43;25.80;57.90
59162;DHT22;44942;48.936;8.260;2023-07-24T11:06:43;25.80;57.80
59162;DHT22;44942;48.936;8.260;2023-07-24T11:11:44;25.80;57.80
59162;DHT22;44942;48.936;8.260;2023-07-24T11:16:48;25.80;57.90
59162;DHT22;44942;48.936;8.260;2023-07-24T11:21:49;25.80;58.00
59162;DHT22;44942;48.936;8.260;2023-07-24T11:26:50;25.80;58.00
59162;DHT22;44942;48.936;8.260;2023-07-24T11:31:54;25.90;58.00
59162;DHT22;44942;48.936;8.260;2023-07-24T11:36:56;25.90;58.00
59162;DHT22;44942;48.936;8.260;2023-07-24T11:41:58;25.90;58.00
59162;DHT22;44942;48.936;8.260;2023-07-24T11:47:00;25.90;57.90
59162;DHT22;44942;48.936;8.260;2023-07-24T11:52:02;26.00;57.90
59162;DHT22;44942;48.936;8.260;2023-07-24T11:57:04;26.00;57.80
59162;DHT22;44942;48.936;8.260;2023-07-24T12:02:14;26.00;57.80
59162;DHT22;44942;48.936;8.260;2023-07-24T12:07:14;26.00;57.70
59162;DHT22;44942;48.936;8.260;2023-07-24T12:12:15;26.00;57.60
59162;DHT22;44942;48.936;8.260;2023-07-24T12:17:18;26.00;57.50
59162;DHT22;44942;48.936;8.260;2023-07-24T12:22:18;26.00;57.30
59162;DHT22;44942;48.936;8.260;2023-07-24T12:27:19;26.00;57.40
59162;DHT22;44942;48.936;8.260;2023-07-24T12:32:20;26.00;57.20
59162;DHT22;44942;48.936;8.260;2023-07-24T12:37:24;26.00;57.10
59162;DHT22;44942;48.936;8.260;2023-07-24T12:42:25;26.00;57.00
59162;DHT22;44942;48.936;8.260;2023-07-24T12:47:27;26.00;56.80
59162;DHT22;44942;48.936;8.260;2023-07-24T12:52:28;26.00;56.70
59162;DHT22;44942;48.936;8.260;2023-07-24T12:57:29;26.00;56.50
59162;DHT22;44942;48.936;8.260;2023-07-24T13:02:29;26.10;56.50
59162;DHT22;44942;48.936;8.260;2023-07-24T13:07:30;26.10;56.40
59162;DHT22;44942;48.936;8.260;2023-07-24T13:12:30;26.10;56.40
59162;DHT22;44942;48.936;8.260;2023-07-24T13:17:31;26.10;56.20
59162;DHT22;44942;48.936;8.260;2023-07-24T13:22:31;26.10;56.10
59162;DHT22;44942;48.936;8.260;2023-07-24T13:27:32;26.10;56.00
59162;DHT22;44942;48.936;8.260;2023-07-24T13:32:32;26.10;55.80
59162;DHT22;44942;48.936;8.260;2023-07-24T13:37:33;26.10;56.50
59162;DHT22;44942;48.936;8.260;2023-07-24T13:42:33;26.20;55.70
59162;DHT22;44942;48.936;8.260;2023-07-24T13:47:34;26.20;55.60
59162;DHT22;44942;48.936;8.260;2023-07-24T13:52:34;26.20;55.60
59162;DHT22;44942;48.936;8.260;2023-07-24T13:57:34;26.20;55.50
59162;DHT22;44942;48.936;8.260;2023-07-24T14:02:35;26.20;55.50
59162;DHT22;44942;48.936;8.260;2023-07-24T14:07:35;26.20;55.40
59162;DHT22;44942;48.936;8.260;2023-07-24T14:12:36;26.20;55.40
59162;DHT22;44942;48.936;8.260;2023-07-24T14:17:36;26.20;55.20
59162;DHT22;44942;48.936;8.260;2023-07-24T14:22:37;26.30;55.20
59162;DHT22;44942;48.936;8.260;2023-07-24T14:27:37;26.30;55.20
59162;DHT22;44942;48.936;8.260;2023-07-24T14:32:38;26.30;55.20
59162;DHT22;44942;48.936;8.260;2023-07-24T14:37:38;26.30;55.20
59162;DHT22;44942;48.936;8.260;2023-07-24T14:42:39;26.40;55.30
59162;DHT22;44942;48.936;8.260;2023-07-24T14:47:39;26.40;55.30
59162;DHT22;44942;48.936;8.260;2023-07-24T14:52:40;26.40;55.30
59162;DHT22;44942;48.936;8.260;2023-07-24T14:57:40;26.40;55.30
59162;DHT22;44942;48.936;8.260;2023-07-24T15:02:41;26.40;55.30
59162;DHT22;44942;48.936;8.260;2023-07-24T15:07:41;26.40;55.30
59162;DHT22;44942;48.936;8.260;2023-07-24T15:12:42;26.40;55.20
59162;DHT22;44942;48.936;8.260;2023-07-24T15:17:42;26.40;55.10
59162;DHT22;44942;48.936;8.260;2023-07-24T15:22:43;26.50;55.20
59162;DHT22;44942;48.936;8.260;2023-07-24T15:27:43;26.50;55.30
59162;DHT22;44942;48.936;8.260;2023-07-24T15:32:44;26.50;55.40
59162;DHT22;44942;48.936;8.260;2023-07-24T15:37:46;26.50;55.70
59162;DHT22;44942;48.936;8.260;2023-07-24T15:42:47;26.50;56.00
59162;DHT22;44942;48.936;8.260;2023-07-24T15:47:47;26.50;56.30
59162;DHT22;44942;48.936;8.260;2023-07-24T15:52:48;26.50;56.70
59162;DHT22;44942;48.936;8.260;2023-07-24T15:57:48;26.50;56.70
59162;DHT22;44942;48.936;8.260;2023-07-24T16:02:49;26.50;56.90
59162;DHT22;44942;48.936;8.260;2023-07-24T16:07:49;26.50;57.20
59162;DHT22;44942;48.936;8.260;2023-07-24T16:12:50;26.50;57.40
59162;DHT22;44942;48.936;8.260;2023-07-24T16:17:51;26.50;57.60
59162;DHT22;44942;48.936;8.260;2023-07-24T16:22:51;26.50;57.60
59162;DHT22;44942;48.936;8.260;2023-07-24T16:27:52;26.60;57.60
59162;DHT22;44942;48.936;8.260;2023-07-24T16:32:52;26.60;57.50
59162;DHT22;44942;48.936;8.260;2023-07-24T16:37:53;26.60;57.50
59162;DHT22;44942;48.936;8.260;2023-07-24T16:42:54;26.70;57.60
59162;DHT22;44942;48.936;8.260;2023-07-24T16:47:54;26.70;57.60
59162;DHT22;44942;48.936;8.260;2023-07-24T16:52:55;26.70;57.60
59162;DHT22;44942;48.936;8.260;2023-07-24T16:57:55;26.80;57.60
59162;DHT22;44942;48.936;8.260;2023-07-24T17:02:56;26.80;57.50
59162;DHT22;44942;48.936;8.260;2023-07-24T17:07:56;26.80;57.50
59162;DHT22;44942;48.936;8.260;2023-07-24T17:12:57;26.90;57.50
59162;DHT22;44942;48.936;8.260;2023-07-24T17:17:57;26.90;57.40
59162;DHT22;44942;48.936;8.260;2023-07-24T17:22:58;26.90;57.30
59162;DHT22;44942;48.936;8.260;2023-07-24T17:27:58;26.90;57.20
59162;DHT22;44942;48.936;8.260;2023-07-24T17:32:59;26.90;57.20
59162;DHT22;44942;48.936;8.260;2023-07-24T17:38:01;26.90;57.00
59162;DHT22;44942;48.936;8.260;2023-07-24T17:43:02;26.80;56.80
59162;DHT22;44942;48.936;8.260;2023-07-24T17:48:03;26.80;56.80
59162;DHT22;44942;48.936;8.260;2023-07-24T17:53:04;26.80;56.70
59162;DHT22;44942;48.936;8.260;2023-07-24T17:58:04;26.80;56.60
59162;DHT22;44942;48.936;8.260;2023-07-24T18:03:05;26.80;56.50
59162;DHT22;44942;48.936;8.260;2023-07-24T18:08:05;26.80;56.50
59162;DHT22;44942;48.936;8.260;2023-07-24T18:13:06;26.80;56.50
59162;DHT22;44942;48.936;8.260;2023-07-24T18:18:06;26.80;56.40
59162;DHT22;44942;48.936;8.260;2023-07-24T18:23:06;26.80;56.20
59162;DHT22;44942;48.936;8.260;2023-07-24T18:28:07;26.80;55.40
59162;DHT22;44942;48.936;8.260;2023-07-24T18:33:08;26.80;56.00
59162;DHT22;44942;48.936;8.260;2023-07-24T18:38:08;26.70;55.80
59162;DHT22;44942;48.936;8.260;2023-07-24T18:43:10;26.70;55.70
59162;DHT22;44942;48.936;8.260;2023-07-24T18:48:10;26.70;55.60
59162;DHT22;44942;48.936;8.260;2023-07-24T18:53:11;26.70;55.40
59162;DHT22;44942;48.936;8.260;2023-07-24T18:58:12;26.70;55.30
59162;DHT22;44942;48.936;8.260;2023-07-24T19:03:12;26.70;55.40
59162;DHT22;44942;48.936;8.260;2023-07-24T19:08:13;26.70;55.40
59162;DHT22;44942;48.936;8.260;2023-07-24T19:13:14;26.70;55.40
59162;DHT22;44942;48.936;8.260;2023-07-24T19:18:14;26.60;55.30
59162;DHT22;44942;48.936;8.260;2023-07-24T19:23:15;26.60;55.20
59162;DHT22;44942;48.936;8.260;2023-07-24T19:28:15;26.50;55.20
59162;DHT22;44942;48.936;8.260;2023-07-24T19:33:16;26.50;55.20
59162;DHT22;44942;48.936;8.260;2023-07-24T19:38:16;26.40;55.10
59162;DHT22;44942;48.936;8.260;2023-07-24T19:43:17;26.40;55.10
59162;DHT22;44942;48.936;8.260;2023-07-24T19:48:18;26.40;55.00
59162;DHT22;44942;48.936;8.260;2023-07-24T19:53:19;26.40;54.90
59162;DHT22;44942;48.936;8.260;2023-07-24T19:58:20;26.30;54.80
59162;DHT22;44942;48.936;8.260;2023-07-24T20:03:21;26.30;54.70
59162;DHT22;44942;48.936;8.260;2023-07-24T20:08:22;26.30;54.70
59162;DHT22;44942;48.936;8.260;2023-07-24T20:13:23;26.20;54.70
59162;DHT22;44942;48.936;8.260;2023-07-24T20:18:24;26.20;54.60
59162;DHT22;44942;48.936;8.260;2023-07-24T20:23:24;26.20;54.80
59162;DHT22;44942;48.936;8.260;2023-07-24T20:28:24;26.10;54.70
59162;DHT22;44942;48.936;8.260;2023-07-24T20:33:26;26.10;54.80
59162;DHT22;44942;48.936;8.260;2023-07-24T20:38:27;26.10;54.90
59162;DHT22;44942;48.936;8.260;2023-07-24T20:43:29;26.10;55.00
59162;DHT22;44942;48.936;8.260;2023-07-24T20:48:30;26.00;55.00
59162;DHT22;44942;48.936;8.260;2023-07-24T20:53:30;26.00;55.00
59162;DHT22;44942;48.936;8.260;2023-07-24T20:58:31;26.00;55.00
59162;DHT22;44942;48.936;8.260;2023-07-24T21:03:31;26.00;55.10
59162;DHT22;44942;48.936;8.260;2023-07-24T21:08:32;26.00;55.10
59162;DHT22;44942;48.936;8.260;2023-07-24T21:13:32;25.90;55.00
59162;DHT22;44942;48.936;8.260;2023-07-24T21:18:33;25.90;55.80
59162;DHT22;44942;48.936;8.260;2023-07-24T21:23:33;25.90;55.10
59162;DHT22;44942;48.936;8.260;2023-07-24T21:28:34;25.80;55.00
59162;DHT22;44942;48.936;8.260;2023-07-24T21:33:34;25.80;55.00
59162;DHT22;44942;48.936;8.260;2023-07-24T21:38:37;25.80;55.00
59162;DHT22;44942;48.936;8.260;2023-07-24T21:43:38;25.80;55.00
59162;DHT22;44942;48.936;8.260;2023-07-24T21:48:38;25.70;55.00
59162;DHT22;44942;48.936;8.260;2023-07-24T21:53:39;25.70;54.90
59162;DHT22;44942;48.936;8.260;2023-07-24T21:58:39;25.70;55.00
59162;DHT22;44942;48.936;8.260;2023-07-24T22:03:40;25.70;55.00
59162;DHT22;44942;48.936;8.260;2023-07-24T22:08:40;25.60;55.00
59162;DHT22;44942;48.936;8.260;2023-07-24T22:13:41;25.60;54.90
59162;DHT22;44942;48.936;8.260;2023-07-24T22:18:43;25.60;54.90
59162;DHT22;44942;48.936;8.260;2023-07-24T22:23:44;25.60;54.80
59162;DHT22;44942;48.936;8.260;2023-07-24T22:28:44;25.70;54.80
59162;DHT22;44942;48.936;8.260;2023-07-24T22:33:45;25.60;54.70
59162;DHT22;44942;48.936;8.260;2023-07-24T22:38:45;25.60;54.60
59162;DHT22;44942;48.936;8.260;2023-07-24T22:43:47;25.60;54.70
59162;DHT22;44942;48.936;8.260;2023-07-24T22:48:47;25.60;54.60
59162;DHT22;44942;48.936;8.260;2023-07-24T22:53:48;25.60;54.60
59162;DHT22;44942;48.936;8.260;2023-07-24T22:59:16;25.60;55.30
59162;DHT22;44942;48.936;8.260;2023-07-24T23:04:17;25.60;54.70
59162;DHT22;44942;48.936;8.260;2023-07-24T23:09:18;25.60;54.60
59162;DHT22;44942;48.936;8.260;2023-07-24T23:14:19;25.60;54.80
59162;DHT22;44942;48.936;8.260;2023-07-24T23:19:19;25.60;54.70
59162;DHT22;44942;48.936;8.260;2023-07-24T23:24:19;25.60;54.70
59162;DHT22;44942;48.936;8.260;2023-07-24T23:29:20;25.50;54.70
59162;DHT22;44942;48.936;8.260;2023-07-24T23:34:21;25.60;55.00
59162;DHT22;44942;48.936;8.260;2023-07-24T23:39:21;25.60;55.20
59162;DHT22;44942;48.936;8.260;2023-07-24T23:44:22;25.50;55.00
59162;DHT22;44942;48.936;8.260;2023-07-24T23:49:22;25.50;55.10
59162;DHT22;44942;48.936;8.260;2023-07-24T23:54:23;25.50;55.10
59162;DHT22;44942;48.936;8.260;2023-07-24T23:59:23;25.50;55.10
